createdAt,value
2022-09-14T00:00:45.666Z,99544.31
2022-09-14T00:03:34.112Z,99548.06
2022-09-14T00:06:24.233Z,99537.34
2022-09-14T00:09:15.394Z,99539.78
2022-09-14T00:12:04.259Z,99535.72
2022-09-14T00:14:52.908Z,99539.19
2022-09-14T00:17:41.329Z,99536.75
2022-09-14T00:20:30.022Z,99530.78
2022-09-14T00:23:20.176Z,99530.78
2022-09-14T00:26:10.103Z,99519.75
2022-09-14T00:29:02.345Z,99514.03
2022-09-14T00:31:50.982Z,99517.31
2022-09-14T00:34:39.545Z,99514.41
2022-09-14T00:37:28.040Z,99521.03
2022-09-14T00:40:18.767Z,99520.19
2022-09-14T00:43:10.315Z,99508.91
2022-09-14T00:45:58.957Z,99510.53
2022-09-14T00:48:47.532Z,99513.56
2022-09-14T00:51:36.793Z,99511.59
2022-09-14T00:54:25.349Z,99504.97
2022-09-14T00:57:16.199Z,99509.50
2022-09-14T01:00:08.380Z,99510.78
2022-09-14T01:02:58.097Z,99511.84
2022-09-14T01:05:57.869Z,99507.28
2022-09-14T01:08:55.254Z,99503.81
2022-09-14T01:12:02.182Z,99504.25
2022-09-14T01:14:56.503Z,99501.00
2022-09-14T01:17:49.385Z,99499.34
2022-09-14T01:20:41.502Z,99501.00
2022-09-14T01:23:37.275Z,99502.63
2022-09-14T01:26:40.982Z,99496.47
2022-09-14T01:29:34.521Z,99492.97
2022-09-14T01:32:27.805Z,99494.00
2022-09-14T01:35:20.907Z,99484.94
2022-09-14T01:38:11.152Z,99483.31
2022-09-14T01:41:01.561Z,99485.97
2022-09-14T01:43:51.840Z,99480.84
2022-09-14T01:46:44.735Z,99477.94
2022-09-14T01:49:37.409Z,99480.84
2022-09-14T01:52:28.371Z,99485.41
2022-09-14T01:55:20.224Z,99475.84
2022-09-14T01:58:11.310Z,99469.69
2022-09-14T02:01:01.873Z,99464.56
2022-09-14T02:03:54.174Z,99458.16
2022-09-14T02:06:45.138Z,99456.06
2022-09-14T02:09:33.891Z,99446.66
2022-09-14T02:12:22.734Z,99457.59
2022-09-14T02:15:14.808Z,99460.75
2022-09-14T02:18:03.329Z,99455.38
2022-09-14T02:20:55.785Z,99453.75
2022-09-14T02:23:44.383Z,99453.28
2022-09-14T02:26:33.275Z,99454.91
2022-09-14T02:29:21.945Z,99449.56
2022-09-14T02:32:17.118Z,99434.34
2022-09-14T02:35:11.445Z,99434.34
2022-09-14T02:38:03.821Z,99428.97
2022-09-14T02:40:56.982Z,99438.03
2022-09-14T02:43:52.465Z,99435.59
2022-09-14T02:46:48.118Z,99433.16
2022-09-14T02:49:42.136Z,99439.91
2022-09-14T02:52:34.922Z,99437.22
2022-09-14T02:55:26.331Z,99430.84
2022-09-14T02:58:15.827Z,99425.47
2022-09-14T03:01:05.164Z,99433.50
2022-09-14T03:03:53.629Z,99435.97
2022-09-14T03:06:42.065Z,99445.03
2022-09-14T03:09:30.487Z,99444.22
2022-09-14T03:12:20.231Z,99449.56
2022-09-14T03:15:09.728Z,99437.22
2022-09-14T03:17:58.180Z,99437.22
2022-09-14T03:20:47.821Z,99437.22
2022-09-14T03:23:39.857Z,99430.25
2022-09-14T03:26:29.996Z,99446.53
2022-09-14T03:29:19.799Z,99442.59
2022-09-14T03:32:10.874Z,99440.97
2022-09-14T03:34:59.439Z,99441.75
2022-09-14T03:37:48.381Z,99438.63
2022-09-14T03:40:36.821Z,99439.91
2022-09-14T03:43:26.702Z,99433.88
2022-09-14T03:46:18.253Z,99435.13
2022-09-14T03:49:06.839Z,99430.84
2022-09-14T03:51:59.523Z,99424.22
2022-09-14T03:54:48.325Z,99427.94
2022-09-14T03:57:37.163Z,99426.53
2022-09-14T04:00:25.699Z,99419.56
2022-09-14T04:03:15.863Z,99419.06
2022-09-14T04:06:07.994Z,99407.81
2022-09-14T04:08:56.408Z,99405.59
2022-09-14T04:11:44.868Z,99401.88
2022-09-14T04:14:33.297Z,99399.19
2022-09-14T04:17:25.229Z,99405.69
2022-09-14T04:20:15.364Z,99396.53
2022-09-14T04:23:03.771Z,99397.09
2022-09-14T04:25:52.546Z,99394.41
2022-09-14T04:28:41.660Z,99395.22
2022-09-14T04:31:30.298Z,99386.97
2022-09-14T04:34:18.865Z,99380.81
2022-09-14T04:37:08.779Z,99381.63
2022-09-14T04:39:57.315Z,99389.41
2022-09-14T04:42:46.204Z,99377.09
2022-09-14T04:45:35.323Z,99381.63
2022-09-14T04:48:23.715Z,99374.63
2022-09-14T04:51:14.413Z,99374.63
2022-09-14T04:54:06.288Z,99378.72
2022-09-14T04:56:54.698Z,99377.88
2022-09-14T04:59:43.361Z,99384.88
2022-09-14T05:02:32.286Z,99375.78
2022-09-14T05:05:20.888Z,99379.50
2022-09-14T05:08:09.406Z,99386.50
2022-09-14T05:11:00.078Z,99381.41
2022-09-14T05:13:50.257Z,99372.88
2022-09-14T05:16:40.642Z,99373.59
2022-09-14T05:19:29.115Z,99364.16
2022-09-14T05:22:17.695Z,99370.91
2022-09-14T05:25:08.957Z,99373.00
2022-09-14T05:27:59.103Z,99379.50
2022-09-14T05:30:47.663Z,99372.53
2022-09-14T05:33:36.595Z,99370.44
2022-09-14T05:36:25.322Z,99374.16
2022-09-14T05:39:19.816Z,99377.09
2022-09-14T05:42:10.936Z,99375.22
2022-09-14T05:45:00.776Z,99369.88
2022-09-14T05:47:49.153Z,99368.81
2022-09-14T05:50:37.557Z,99366.59
2022-09-14T05:53:27.636Z,99356.47
2022-09-14T05:56:16.302Z,99361.34
2022-09-14T05:59:04.886Z,99364.50
2022-09-14T06:01:54.709Z,99355.91
2022-09-14T06:04:43.259Z,99363.94
2022-09-14T06:07:31.686Z,99366.38
2022-09-14T06:10:20.874Z,99363.94
2022-09-14T06:13:09.293Z,99348.72
2022-09-14T06:15:58.185Z,99352.19
2022-09-14T06:18:48.687Z,99342.53
2022-09-14T06:21:37.091Z,99340.91
2022-09-14T06:24:26.953Z,99351.59
2022-09-14T06:27:15.424Z,99343.56
2022-09-14T06:30:03.911Z,99351.59
2022-09-14T06:32:52.316Z,99344.38
2022-09-14T06:35:42.122Z,99347.03
2022-09-14T06:38:31.258Z,99347.88
2022-09-14T06:41:21.721Z,99351.59
2022-09-14T06:44:10.266Z,99356.97
2022-09-14T06:46:59.087Z,99360.22
2022-09-14T06:49:49.895Z,99363.25
2022-09-14T06:52:40.146Z,99355.22
2022-09-14T06:55:30.952Z,99351.25
2022-09-14T06:58:23.976Z,99352.88
2022-09-14T07:01:15.027Z,99368.69
2022-09-14T07:04:04.076Z,99356.13
2022-09-14T07:06:52.998Z,99365.44
2022-09-14T07:09:42.697Z,99364.63
2022-09-14T07:12:31.100Z,99352.75
2022-09-14T07:15:19.413Z,99345.56
2022-09-14T07:18:07.855Z,99346.47
2022-09-14T07:20:56.421Z,99344.16
2022-09-14T07:23:45.949Z,99348.94
2022-09-14T07:26:41.713Z,99348.34
2022-09-14T07:29:30.193Z,99340.91
2022-09-14T07:32:18.741Z,99342.53
2022-09-14T07:35:08.169Z,99349.28
2022-09-14T07:37:56.493Z,99349.50
2022-09-14T07:40:45.042Z,99350.56
2022-09-14T07:43:34.913Z,99342.53
2022-09-14T07:46:24.375Z,99349.97
2022-09-14T07:49:13.817Z,99349.97
2022-09-14T07:52:02.230Z,99349.97
2022-09-14T07:54:50.754Z,99353.69
2022-09-14T07:57:55.725Z,99352.66
2022-09-14T08:00:46.151Z,99354.50
2022-09-14T08:03:39.220Z,99352.88
2022-09-14T08:06:28.118Z,99345.41
2022-09-14T08:09:16.617Z,99349.97
2022-09-14T08:12:05.840Z,99347.31
2022-09-14T08:14:54.357Z,99345.41
2022-09-14T08:17:45.797Z,99340.91
2022-09-14T08:20:34.308Z,99343.78
2022-09-14T08:23:22.710Z,99347.88
2022-09-14T08:26:13.007Z,99356.13
2022-09-14T08:29:02.096Z,99348.72
2022-09-14T08:31:52.029Z,99354.84
2022-09-14T08:34:43.240Z,99352.66
2022-09-14T08:37:31.705Z,99354.28
2022-09-14T08:40:20.374Z,99354.84
2022-09-14T08:43:12.657Z,99352.19
2022-09-14T08:46:04.584Z,99338.00
2022-09-14T08:48:53.844Z,99340.91
2022-09-14T08:51:43.996Z,99345.69
2022-09-14T08:54:33.139Z,99340.91
2022-09-14T08:57:27.651Z,99343.34
2022-09-14T09:00:17.895Z,99341.13
2022-09-14T09:03:32.518Z,99344.63
2022-09-14T09:06:24.289Z,99341.38
2022-09-14T09:09:19.119Z,99343.00
2022-09-14T09:12:08.955Z,99345.19
2022-09-14T09:15:00.352Z,99345.41
2022-09-14T09:17:51.052Z,99342.53
2022-09-14T09:20:42.477Z,99343.00
2022-09-14T09:23:33.117Z,99337.66
2022-09-14T09:26:27.583Z,99335.78
2022-09-14T09:29:16.075Z,99325.91
2022-09-14T09:32:06.424Z,99326.94
2022-09-14T09:34:55.018Z,99329.38
2022-09-14T09:37:43.596Z,99330.19
2022-09-14T09:40:36.669Z,99332.66
2022-09-14T09:43:45.719Z,99320.28
2022-09-14T09:46:36.395Z,99332.03
2022-09-14T09:49:27.105Z,99323.22
2022-09-14T09:52:17.448Z,99320.28
2022-09-14T09:55:08.243Z,99315.75
2022-09-14T09:57:56.697Z,99321.13
2022-09-14T10:00:59.471Z,99310.88
2022-09-14T10:04:02.866Z,99307.16
2022-09-14T10:06:53.132Z,99301.81
2022-09-14T10:09:41.676Z,99289.00
2022-09-14T10:12:31.184Z,99292.25
2022-09-14T10:15:25.710Z,99284.72
2022-09-14T10:18:21.566Z,99293.78
2022-09-14T10:21:10.728Z,99300.19
2022-09-14T10:24:07.847Z,99293.53
2022-09-14T10:26:56.275Z,99302.63
2022-09-14T10:29:46.137Z,99294.34
2022-09-14T10:32:36.417Z,99289.00
2022-09-14T10:35:44.109Z,99287.72
2022-09-14T10:38:34.237Z,99286.91
2022-09-14T10:41:27.106Z,99292.25
2022-09-14T10:44:38.103Z,99295.97
2022-09-14T10:47:36.816Z,99294.47
2022-09-14T10:50:34.711Z,99299.22
2022-09-14T10:53:37.963Z,99314.50
2022-09-14T10:56:41.679Z,99322.63
2022-09-14T10:59:33.479Z,99325.56
2022-09-14T11:02:44.051Z,99321.81
2022-09-14T11:05:37.536Z,99322.88
2022-09-14T11:08:33.578Z,99320.19
2022-09-14T11:11:33.299Z,99315.53
2022-09-14T11:14:41.148Z,99309.94
2022-09-14T11:17:42.333Z,99309.50
2022-09-14T11:20:42.729Z,99304.13
2022-09-14T11:23:42.250Z,99296.13
2022-09-14T11:26:38.069Z,99277.38
2022-09-14T11:29:31.702Z,99270.06
2022-09-14T11:32:23.680Z,99285.28
2022-09-14T11:35:19.356Z,99290.41
2022-09-14T11:38:14.392Z,99288.53
2022-09-14T11:41:12.532Z,99290.63
2022-09-14T11:44:03.606Z,99276.19
2022-09-14T11:46:59.991Z,99265.50
2022-09-14T11:49:56.183Z,99270.38
2022-09-14T11:52:44.676Z,99263.41
2022-09-14T11:55:34.859Z,99268.75
2022-09-14T11:58:25.032Z,99274.09
2022-09-14T12:01:35.687Z,99275.28
2022-09-14T12:04:24.256Z,99263.41
2022-09-14T12:07:55.397Z,99257.25
2022-09-14T12:11:06.634Z,99261.78
2022-09-14T12:14:16.398Z,99262.59
2022-09-14T12:20:38.032Z,99243.28
2022-09-14T12:23:28.722Z,99245.72
2022-09-14T12:26:32.422Z,99247.03
2022-09-14T12:29:30.401Z,99244.56
2022-09-14T12:32:41.960Z,99248.03
2022-09-14T12:35:47.353Z,99250.97
2022-09-14T12:38:44.032Z,99241.06
2022-09-14T12:42:02.536Z,99243.50
2022-09-14T12:44:50.992Z,99235.97
2022-09-14T12:47:59.954Z,99240.28
2022-09-14T12:50:51.347Z,99235.50
2022-09-14T12:53:40.425Z,99230.13
2022-09-14T12:56:33.372Z,99231.75
2022-09-14T12:59:26.540Z,99228.28
2022-09-14T13:02:49.407Z,99233.38
2022-09-14T13:05:38.180Z,99229.66
2022-09-14T13:08:26.645Z,99211.97
2022-09-14T13:11:23.115Z,99203.94
2022-09-14T13:14:17.183Z,99199.16
2022-09-14T13:17:10.660Z,99205.13
2022-09-14T13:20:02.446Z,99205.22
2022-09-14T13:22:51.000Z,99210.56
2022-09-14T13:25:40.162Z,99207.88
2022-09-14T13:28:32.236Z,99202.31
2022-09-14T13:31:27.477Z,99197.75
2022-09-14T13:34:21.329Z,99202.44
2022-09-14T13:37:10.104Z,99198.25
2022-09-14T13:39:59.208Z,99209.66
2022-09-14T13:42:47.864Z,99205.97
2022-09-14T13:45:37.737Z,99202.38
2022-09-14T13:48:26.540Z,99206.91
2022-09-14T13:51:16.752Z,99188.16
2022-09-14T13:54:19.323Z,99184.09
2022-09-14T13:57:14.465Z,99184.09
2022-09-14T14:00:08.642Z,99184.00
2022-09-14T14:03:02.593Z,99177.81
2022-09-14T14:05:51.123Z,99166.06
2022-09-14T14:08:41.020Z,99179.94
2022-09-14T14:11:35.646Z,99174.59
2022-09-14T14:14:31.540Z,99164.38
2022-09-14T14:17:34.572Z,99163.53
2022-09-14T14:20:34.453Z,99169.22
2022-09-14T14:23:24.335Z,99161.69
2022-09-14T14:26:18.954Z,99162.97
2022-09-14T14:29:10.787Z,99171.34
2022-09-14T14:32:01.006Z,99162.16
2022-09-14T14:34:49.955Z,99166.31
2022-09-14T14:37:38.348Z,99156.25
2022-09-14T14:40:28.276Z,99152.25
2022-09-14T14:43:20.416Z,99155.28
2022-09-14T14:46:09.303Z,99155.63
2022-09-14T14:48:57.873Z,99157.47
2022-09-14T14:51:46.573Z,99161.91
2022-09-14T14:54:35.049Z,99151.56
2022-09-14T14:57:24.917Z,99139.25
2022-09-14T15:00:17.674Z,99145.06
2022-09-14T15:03:06.225Z,99148.63
2022-09-14T15:05:54.738Z,99150.16
2022-09-14T15:08:44.176Z,99147.84
2022-09-14T15:11:32.891Z,99146.56
2022-09-14T15:14:26.566Z,99139.94
2022-09-14T15:17:17.174Z,99142.34
2022-09-14T15:20:06.228Z,99140.50
2022-09-14T15:22:55.007Z,99148.03
2022-09-14T15:25:43.551Z,99144.31
2022-09-14T15:28:32.002Z,99142.69
2022-09-14T15:31:20.725Z,99137.34
2022-09-14T15:34:10.668Z,99132.81
2022-09-14T15:36:59.153Z,99137.34
2022-09-14T15:39:50.508Z,99133.63
2022-09-14T15:42:39.222Z,99130.72
2022-09-14T15:45:27.831Z,99135.56
2022-09-14T15:48:18.197Z,99127.31
2022-09-14T15:51:11.559Z,99123.34
2022-09-14T15:54:00.129Z,99123.09
2022-09-14T15:56:50.533Z,99123.09
2022-09-14T15:59:40.735Z,99123.09
2022-09-14T16:02:29.297Z,99124.25
2022-09-14T16:05:19.963Z,99128.78
2022-09-14T16:08:09.787Z,99127.97
2022-09-14T16:10:59.562Z,99126.91
2022-09-14T16:13:48.518Z,99124.25
2022-09-14T16:16:37.696Z,99127.97
2022-09-14T16:19:26.667Z,99123.44
2022-09-14T16:22:15.128Z,99115.66
2022-09-14T16:25:07.905Z,99118.31
2022-09-14T16:27:56.370Z,99111.13
2022-09-14T16:30:45.463Z,99104.94
2022-09-14T16:33:41.292Z,99098.81
2022-09-14T16:36:33.187Z,99110.28
2022-09-14T16:39:24.272Z,99100.41
2022-09-14T16:42:13.999Z,99096.19
2022-09-14T16:45:02.466Z,99108.19
2022-09-14T16:47:50.899Z,99092.13
2022-09-14T16:50:41.618Z,99089.22
2022-09-14T16:53:32.993Z,99079.09
2022-09-14T16:56:23.280Z,99076.41
2022-09-14T16:59:13.984Z,99071.06
2022-09-14T17:02:04.812Z,99074.56
2022-09-14T17:04:53.780Z,99075.13
2022-09-14T17:07:43.332Z,99073.03
2022-09-14T17:10:35.151Z,99080.47
2022-09-14T17:13:23.631Z,99078.38
2022-09-14T17:16:17.339Z,99075.47
2022-09-14T17:19:06.639Z,99073.84
2022-09-14T17:21:55.409Z,99073.59
2022-09-14T17:24:43.977Z,99067.66
2022-09-14T17:27:32.550Z,99066.94
2022-09-14T17:30:21.001Z,99075.78
2022-09-14T17:33:13.286Z,99058.91
2022-09-14T17:36:01.934Z,99059.25
2022-09-14T17:38:50.482Z,99051.78
2022-09-14T17:41:39.066Z,99052.59
2022-09-14T17:44:31.251Z,99035.47
2022-09-14T17:47:19.787Z,99032.78
2022-09-14T17:50:10.329Z,99038.97
2022-09-14T17:52:58.823Z,99044.75
2022-09-14T17:55:47.359Z,99048.72
2022-09-14T17:58:36.901Z,99043.53
2022-09-14T18:01:25.432Z,99032.75
2022-09-14T18:04:15.317Z,99030.09
2022-09-14T18:07:06.181Z,99023.19
2022-09-14T18:09:54.836Z,99032.03
2022-09-14T18:12:43.270Z,99040.53
2022-09-14T18:15:31.743Z,99048.25
2022-09-14T18:18:20.147Z,99040.13
2022-09-14T18:21:09.006Z,99036.56
2022-09-14T18:23:58.886Z,99037.38
2022-09-14T18:26:48.654Z,99027.56
2022-09-14T18:29:37.078Z,99032.38
2022-09-14T18:32:25.472Z,99027.47
2022-09-14T18:35:15.501Z,99027.31
2022-09-14T18:38:03.941Z,99037.13
2022-09-14T18:40:53.877Z,99041.44
2022-09-14T18:43:44.886Z,99040.28
2022-09-14T18:46:33.621Z,99034.94
2022-09-14T18:49:22.175Z,99026.69
2022-09-14T18:52:10.788Z,99026.50
2022-09-14T18:54:59.414Z,99036.09
2022-09-14T18:57:49.745Z,99040.28
2022-09-14T19:00:38.531Z,99040.28
2022-09-14T19:03:27.149Z,99039.81
2022-09-14T19:06:17.861Z,99032.59
2022-09-14T19:09:07.324Z,99030.88
2022-09-14T19:11:55.771Z,99024.22
2022-09-14T19:14:45.553Z,99009.78
2022-09-14T19:17:34.047Z,99013.03
2022-09-14T19:20:23.210Z,99010.94
2022-09-14T19:23:12.116Z,99007.22
2022-09-14T19:26:04.409Z,99010.44
2022-09-14T19:28:52.942Z,99018.97
2022-09-14T19:31:42.900Z,99026.41
2022-09-14T19:34:31.422Z,99022.13
2022-09-14T19:37:20.501Z,99009.31
2022-09-14T19:40:10.632Z,99020.03
2022-09-14T19:42:59.140Z,99025.84
2022-09-14T19:45:48.151Z,99017.59
2022-09-14T19:48:38.741Z,99003.97
2022-09-14T19:51:28.614Z,98998.34
2022-09-14T19:54:17.509Z,98999.72
2022-09-14T19:57:06.026Z,98997.28
2022-09-14T19:59:54.501Z,98988.47
2022-09-14T20:02:43.078Z,98980.25
2022-09-14T20:05:34.571Z,98969.22
2022-09-14T20:08:23.460Z,98965.47
2022-09-14T20:11:19.052Z,98968.72
2022-09-14T20:14:17.229Z,98968.72
2022-09-14T20:17:06.708Z,98959.06
2022-09-14T20:19:55.474Z,98970.84
2022-09-14T20:22:45.810Z,98984.47
2022-09-14T20:25:34.878Z,98996.22
2022-09-14T20:28:27.159Z,98990.66
2022-09-14T20:31:15.721Z,98998.63
2022-09-14T20:34:05.907Z,99006.16
2022-09-14T20:36:54.839Z,99002.31
2022-09-14T20:39:44.767Z,98997.47
2022-09-14T20:42:33.743Z,98994.28
2022-09-14T20:45:22.271Z,98991.03
2022-09-14T20:48:10.737Z,98987.91
2022-09-14T20:50:59.755Z,98994.88
2022-09-14T20:53:48.661Z,98988.94
2022-09-14T20:56:38.866Z,98988.94
2022-09-14T20:59:30.197Z,98994.53
2022-09-14T21:02:18.820Z,98991.13
2022-09-14T21:05:07.874Z,98996.97
2022-09-14T21:07:56.936Z,99012.72
2022-09-14T21:10:46.647Z,99007.28
2022-09-14T21:13:37.006Z,99020.31
2022-09-14T21:16:26.898Z,99027.75
2022-09-14T21:19:17.633Z,99030.44
2022-09-14T21:22:06.698Z,99026.16
2022-09-14T21:24:55.222Z,99022.91
2022-09-14T21:27:43.764Z,99021.28
2022-09-14T21:30:34.221Z,99019.09
2022-09-14T21:33:23.174Z,99028.75
2022-09-14T21:36:14.754Z,99028.75
2022-09-14T21:39:05.578Z,99033.28
2022-09-14T21:41:58.747Z,99043.19
2022-09-14T21:44:47.851Z,99052.28
2022-09-14T21:47:38.035Z,99056.47
2022-09-14T21:50:26.599Z,99051.69
2022-09-14T21:53:15.011Z,99053.78
2022-09-14T21:56:04.824Z,99050.88
2022-09-14T21:58:54.814Z,99047.38
2022-09-14T22:01:43.741Z,99038.63
2022-09-14T22:04:33.913Z,99039.47
2022-09-14T22:07:22.336Z,99033.28
2022-09-14T22:10:11.587Z,99035.16
2022-09-14T22:13:00.561Z,99040.97
2022-09-14T22:15:49.401Z,99049.00
2022-09-14T22:18:38.827Z,99049.00
2022-09-14T22:21:30.129Z,99042.03
2022-09-14T22:24:20.813Z,99051.44
2022-09-14T22:27:09.565Z,99052.28
2022-09-14T22:29:58.602Z,99050.72
2022-09-14T22:32:47.213Z,99060.31
2022-09-14T22:35:35.762Z,99061.38
2022-09-14T22:38:27.438Z,99056.97
2022-09-14T22:41:18.376Z,99059.06
2022-09-14T22:44:07.729Z,99053.38
2022-09-14T22:46:56.136Z,99059.44
2022-09-14T22:49:44.663Z,99065.84
2022-09-14T22:52:34.037Z,99063.69
2022-09-14T22:55:23.863Z,99069.59
2022-09-14T22:58:14.058Z,99071.69
2022-09-14T23:01:08.033Z,99073.31
2022-09-14T23:04:00.413Z,99075.16
2022-09-14T23:06:49.700Z,99068.53
2022-09-14T23:09:39.247Z,99062.13
2022-09-14T23:12:29.186Z,99059.72
2022-09-14T23:15:17.895Z,99064.25
2022-09-14T23:18:06.616Z,99065.19
2022-09-14T23:20:55.397Z,99077.53
2022-09-14T23:23:43.929Z,99075.88
2022-09-14T23:26:32.853Z,99065.66
2022-09-14T23:29:22.631Z,99071.03
2022-09-14T23:32:11.143Z,99072.66
2022-09-14T23:34:59.547Z,99079.63
2022-09-14T23:37:48.151Z,99072.19
2022-09-14T23:40:36.624Z,99086.59
2022-09-14T23:43:25.037Z,99088.69
2022-09-14T23:46:15.671Z,99088.69
2022-09-14T23:49:04.205Z,99090.81
2022-09-14T23:51:53.044Z,99083.03
2022-09-14T23:54:42.772Z,99093.75
2022-09-14T23:57:31.455Z,99092.56
